TimeCST,TemperatureF,Dew PointF,Humidity,Sea Level PressureIn,VisibilityMPH,Wind Direction,Wind SpeedMPH,Gust SpeedMPH,PrecipitationIn,Events,Conditions,WindDirDegrees,DateUTC
12:53 AM,37.9,26.1,62,30.38,10.0,NW,9.2,-,N/A,,Clear,310,2012-11-23 06:53:00
1:53 AM,37.0,25.0,62,30.40,10.0,WNW,9.2,-,N/A,,Clear,300,2012-11-23 07:53:00
2:53 AM,36.0,25.0,64,30.43,10.0,NW,12.7,-,N/A,,Clear,310,2012-11-23 08:53:00
3:53 AM,37.9,23.0,55,30.45,10.0,NW,16.1,-,N/A,,Clear,320,2012-11-23 09:53:00
4:53 AM,36.0,23.0,59,30.48,10.0,NNW,13.8,-,N/A,,Clear,330,2012-11-23 10:53:00
6:53 AM,33.1,19.0,56,30.53,9.0,NNW,17.3,26.5,0.00,,Clear,340,2012-11-23 12:53:00
7:53 AM,30.9,14.0,50,30.57,10.0,NNW,18.4,-,N/A,,Clear,330,2012-11-23 13:53:00
8:53 AM,32.0,12.9,45,30.59,9.0,NNW,23.0,27.6,0.00,,Clear,340,2012-11-23 14:53:00
9:53 AM,33.1,12.9,43,30.60,10.0,NNW,20.7,-,N/A,,Clear,330,2012-11-23 15:53:00
10:53 AM,35.1,12.9,40,30.62,9.0,NNW,19.6,-,N/A,,Clear,330,2012-11-23 16:53:00
11:53 AM,37.0,14.0,39,30.60,10.0,North,17.3,23.0,N/A,,Clear,350,2012-11-23 17:53:00
12:53 PM,39.0,14.0,36,30.57,10.0,NNW,17.3,-,N/A,,Clear,340,2012-11-23 18:53:00
1:53 PM,41.0,15.1,35,30.55,10.0,NNW,16.1,-,N/A,,Clear,340,2012-11-23 19:53:00
2:53 PM,42.1,15.1,34,30.53,10.0,NNW,13.8,-,N/A,,Clear,330,2012-11-23 20:53:00
3:53 PM,42.1,15.1,34,30.52,10.0,NNW,10.4,-,N/A,,Clear,330,2012-11-23 21:53:00
4:53 PM,39.0,16.0,39,30.51,10.0,NW,6.9,-,N/A,,Clear,320,2012-11-23 22:53:00
5:53 PM,35.1,15.1,44,30.51,10.0,West,4.6,-,N/A,,Clear,280,2012-11-23 23:53:00
6:53 PM,33.1,14.0,46,30.51,10.0,WNW,4.6,-,N/A,,Clear,290,2012-11-24 00:53:00
7:53 PM,32.0,14.0,48,30.51,10.0,Calm,Calm,-,N/A,,Clear,0,2012-11-24 01:53:00
8:53 PM,27.0,14.0,58,30.50,10.0,SSW,4.6,-,N/A,,Clear,210,2012-11-24 02:53:00
9:53 PM,26.1,14.0,60,30.48,10.0,SE,3.5,-,N/A,,Clear,140,2012-11-24 03:53:00
10:53 PM,24.1,15.1,69,30.47,10.0,SSW,4.6,-,N/A,,Clear,200,2012-11-24 04:53:00
11:53 PM,24.1,15.1,69,30.45,10.0,SSW,6.9,-,N/A,,Clear,210,2012-11-24 05:53:00